createdAt,value
2022-09-01T00:01:49.571Z,6.35
2022-09-01T00:04:20.369Z,5.47
2022-09-01T00:06:48.043Z,6.05
2022-09-01T00:09:18.402Z,5.93
2022-09-01T00:11:50.518Z,5.68
2022-09-01T00:14:29.712Z,5.53
2022-09-01T00:17:03.413Z,5.90
2022-09-01T00:19:30.213Z,6.32
2022-09-01T00:21:57.378Z,6.50
2022-09-01T00:24:26.438Z,5.97
2022-09-01T00:26:54.607Z,6.07
2022-09-01T00:29:21.620Z,5.80
2022-09-01T00:31:48.866Z,6.00
2022-09-01T00:34:16.415Z,6.10
2022-09-01T00:36:44.290Z,5.80
2022-09-01T00:39:11.510Z,6.28
2022-09-01T00:41:39.965Z,6.03
2022-09-01T00:44:12.053Z,6.22
2022-09-01T00:46:47.751Z,6.00
2022-09-01T00:49:35.968Z,6.18
2022-09-01T00:52:14.143Z,5.90
2022-09-01T00:54:46.010Z,5.90
2022-09-01T00:57:13.823Z,5.88
2022-09-01T00:59:46.367Z,5.40
2022-09-01T01:02:13.407Z,5.50
2022-09-01T01:04:41.200Z,5.50
2022-09-01T01:07:09.438Z,5.70
2022-09-01T01:09:40.682Z,5.57
2022-09-01T01:12:14.120Z,6.45
2022-09-01T01:14:45.855Z,6.03
2022-09-01T01:17:12.883Z,5.40
2022-09-01T01:20:05.352Z,5.75
2022-09-01T01:23:05.649Z,5.82
2022-09-01T01:25:42.751Z,6.38
2022-09-01T01:28:40.321Z,5.82
2022-09-01T01:31:13.194Z,5.55
2022-09-01T01:36:25.866Z,6.00
2022-09-01T01:38:54.118Z,5.88
2022-09-01T01:41:21.898Z,6.32
2022-09-01T01:43:48.964Z,6.72
2022-09-01T01:46:18.126Z,6.25
2022-09-01T01:48:47.169Z,6.63
2022-09-01T01:53:52.852Z,6.78
2022-09-01T01:56:22.843Z,5.82
2022-09-01T01:58:54.202Z,6.30
2022-09-01T02:01:26.013Z,6.35
2022-09-01T02:03:54.914Z,7.10
2022-09-01T02:06:24.989Z,7.18
2022-09-01T02:09:03.254Z,7.13
2022-09-01T02:11:33.542Z,6.28
2022-09-01T02:14:01.115Z,7.72
2022-09-01T02:16:29.472Z,6.68
2022-09-01T02:18:56.989Z,6.78
2022-09-01T02:21:25.194Z,7.10
2022-09-01T02:24:01.118Z,7.60
2022-09-01T02:26:38.572Z,7.07
2022-09-01T02:29:18.183Z,7.05
2022-09-01T02:31:55.738Z,6.32
2022-09-01T02:34:24.410Z,6.43
2022-09-01T02:36:54.070Z,5.97
2022-09-01T02:39:28.548Z,6.95
2022-09-01T02:41:56.060Z,6.80
2022-09-01T02:44:27.941Z,7.00
2022-09-01T02:46:55.084Z,6.53
2022-09-01T02:49:30.155Z,6.50
2022-09-01T02:52:01.215Z,6.40
2022-09-01T02:54:32.683Z,7.07
2022-09-01T02:57:00.274Z,7.35
2022-09-01T02:59:28.901Z,6.60
2022-09-01T03:01:59.124Z,7.15
2022-09-01T03:04:27.469Z,6.82
2022-09-01T03:06:55.287Z,6.63
2022-09-01T03:09:22.693Z,6.55
2022-09-01T03:11:53.071Z,6.50
2022-09-01T03:14:21.636Z,7.07
2022-09-01T03:16:49.617Z,6.80
2022-09-01T03:19:22.287Z,6.60
2022-09-01T03:24:23.067Z,6.63
2022-09-01T03:26:51.661Z,7.00
2022-09-01T03:29:20.446Z,6.75
2022-09-01T03:31:47.503Z,6.75
2022-09-01T03:34:16.355Z,6.80
2022-09-01T03:36:51.054Z,6.90
2022-09-01T03:39:27.529Z,7.00
2022-09-01T03:41:55.267Z,6.43
2022-09-01T03:44:22.259Z,7.22
2022-09-01T03:46:49.208Z,7.38
2022-09-01T03:49:17.123Z,7.57
2022-09-01T03:51:45.555Z,6.97
2022-09-01T03:54:12.783Z,6.72
2022-09-01T03:56:41.473Z,6.63
2022-09-01T03:59:17.374Z,7.25
2022-09-01T04:01:46.830Z,6.50
2022-09-01T04:04:16.536Z,7.30
2022-09-01T04:11:18.556Z,7.07
2022-09-01T04:13:48.194Z,7.30
2022-09-01T04:16:45.059Z,7.13
2022-09-01T04:19:20.976Z,7.05
2022-09-01T04:21:54.208Z,6.72
2022-09-01T04:24:28.416Z,6.82
2022-09-01T04:26:58.577Z,7.30
2022-09-01T04:29:29.118Z,7.70
2022-09-01T04:32:03.891Z,7.70
2022-09-01T04:34:42.629Z,7.10
2022-09-01T04:37:18.304Z,9.07
2022-09-01T04:39:56.032Z,6.95
2022-09-01T04:42:25.671Z,7.85
2022-09-01T04:44:54.482Z,7.45
2022-09-01T04:47:35.731Z,7.18
2022-09-01T04:50:14.396Z,7.68
2022-09-01T04:52:45.127Z,8.15
2022-09-01T04:55:24.651Z,7.63
2022-09-01T04:57:52.467Z,7.45
2022-09-01T05:00:24.925Z,8.27
2022-09-01T05:02:54.131Z,8.45
2022-09-01T05:05:24.182Z,8.82
2022-09-01T05:07:55.467Z,8.60
2022-09-01T05:10:29.117Z,9.65
2022-09-01T05:13:17.691Z,9.02
2022-09-01T05:15:49.226Z,8.75
2022-09-01T05:18:23.521Z,8.82
2022-09-01T05:20:52.374Z,7.55
2022-09-01T05:23:19.655Z,8.57
2022-09-01T05:25:49.524Z,9.10
2022-09-01T05:28:19.065Z,7.80
2022-09-01T05:30:47.813Z,8.73
2022-09-01T05:33:21.133Z,9.57
2022-09-01T05:35:55.585Z,9.15
2022-09-01T05:38:24.293Z,9.35
2022-09-01T05:41:03.553Z,9.27
2022-09-01T05:43:31.527Z,8.43
2022-09-01T05:46:06.539Z,10.23
2022-09-01T05:48:39.750Z,9.00
2022-09-01T05:51:27.476Z,9.52
2022-09-01T05:53:59.117Z,9.02
2022-09-01T05:56:28.412Z,9.73
2022-09-01T06:01:46.845Z,9.63
2022-09-01T06:04:16.519Z,9.35
2022-09-01T06:07:05.716Z,9.13
2022-09-01T06:09:33.499Z,9.07
2022-09-01T06:12:02.022Z,8.02
2022-09-01T06:14:28.959Z,9.93
2022-09-01T06:16:56.375Z,9.85
2022-09-01T06:19:23.398Z,9.77
2022-09-01T06:21:51.057Z,9.20
2022-09-01T06:24:18.007Z,10.32
2022-09-01T06:26:46.216Z,9.48
2022-09-01T06:29:15.331Z,9.15
2022-09-01T06:31:51.988Z,9.05
2022-09-01T06:34:20.043Z,10.00
2022-09-01T06:36:49.398Z,10.88
2022-09-01T06:39:20.054Z,10.25
2022-09-01T06:41:52.995Z,10.18
2022-09-01T06:44:24.889Z,10.02
2022-09-01T06:47:00.577Z,10.60
2022-09-01T06:49:34.792Z,10.88
2022-09-01T06:52:04.757Z,10.30
2022-09-01T06:54:35.406Z,10.15
2022-09-01T06:59:52.342Z,10.07
2022-09-01T07:02:20.382Z,10.63
2022-09-01T07:08:10.897Z,9.45
2022-09-01T07:14:16.078Z,10.02
2022-09-01T07:16:51.924Z,10.13
2022-09-01T07:19:19.414Z,10.85
2022-09-01T07:22:08.495Z,10.52
2022-09-01T07:24:39.966Z,10.23
2022-09-01T07:27:35.630Z,11.30
2022-09-01T07:30:09.682Z,11.23
2022-09-01T07:32:43.730Z,9.88
2022-09-01T07:35:39.188Z,9.32
2022-09-01T07:43:08.190Z,10.30
2022-09-01T07:45:59.345Z,10.35
2022-09-01T07:48:37.178Z,10.05
2022-09-01T07:51:36.561Z,10.18
2022-09-01T07:54:05.159Z,10.65
2022-09-01T07:56:35.153Z,10.65
2022-09-01T07:59:04.442Z,10.43
2022-09-01T08:01:34.304Z,11.43
2022-09-01T08:04:02.449Z,11.63
2022-09-01T08:06:37.933Z,11.32
2022-09-01T08:09:11.820Z,11.30
2022-09-01T08:14:26.879Z,10.07
2022-09-01T08:16:53.946Z,11.15
2022-09-01T08:19:20.993Z,9.65
2022-09-01T08:22:06.465Z,8.52
2022-09-01T08:24:53.785Z,9.88
2022-09-01T08:27:21.500Z,8.88
2022-09-01T08:29:48.754Z,9.73
2022-09-01T08:32:15.598Z,9.40
2022-09-01T08:34:43.485Z,8.98
2022-09-01T08:37:10.887Z,8.88
2022-09-01T08:39:38.354Z,8.57
2022-09-01T08:42:15.103Z,9.85
2022-09-01T08:45:09.357Z,8.38
2022-09-01T08:47:58.361Z,8.52
2022-09-01T08:50:23.835Z,8.55
2022-09-01T08:53:13.518Z,8.45
2022-09-01T08:55:44.422Z,7.82
2022-09-01T08:58:15.988Z,8.27
2022-09-01T09:01:09.845Z,8.38
2022-09-01T09:04:27.641Z,7.65
2022-09-01T09:07:26.799Z,8.05
2022-09-01T09:09:59.323Z,7.68
2022-09-01T09:12:52.871Z,7.22
2022-09-01T09:15:51.955Z,7.40
2022-09-01T09:18:38.941Z,7.55
2022-09-01T09:21:33.922Z,8.60
2022-09-01T09:24:47.145Z,6.50
2022-09-01T09:27:31.127Z,7.38
2022-09-01T09:30:12.844Z,7.13
2022-09-01T09:33:44.212Z,6.38
2022-09-01T09:35:54.903Z,7.25
2022-09-01T09:38:28.916Z,6.85
2022-09-01T09:41:18.355Z,7.88
2022-09-01T09:44:00.005Z,7.30
2022-09-01T09:46:32.639Z,7.15
2022-09-01T09:52:01.962Z,6.35
2022-09-01T09:54:35.032Z,6.85
2022-09-01T09:57:31.533Z,6.50
2022-09-01T10:00:05.674Z,7.88
2022-09-01T10:02:44.774Z,6.70
2022-09-01T10:05:30.560Z,7.50
2022-09-01T10:07:58.304Z,7.35
2022-09-01T10:10:27.623Z,7.65
2022-09-01T10:12:55.236Z,7.10
2022-09-01T10:15:25.413Z,7.22
2022-09-01T10:18:19.680Z,6.68
2022-09-01T10:20:48.680Z,7.13
2022-09-01T10:23:15.766Z,7.82
2022-09-01T10:25:43.809Z,8.70
2022-09-01T10:28:20.893Z,8.40
2022-09-01T10:30:48.107Z,7.60
2022-09-01T10:33:20.802Z,9.05
2022-09-01T10:35:51.522Z,8.70
2022-09-01T10:38:24.880Z,8.55
2022-09-01T10:41:14.142Z,9.18
2022-09-01T10:43:44.207Z,8.02
2022-09-01T10:46:42.260Z,9.13
2022-09-01T10:49:46.427Z,8.07
2022-09-01T10:56:51.163Z,8.75
2022-09-01T10:59:34.471Z,9.23
2022-09-01T11:02:27.506Z,10.15
2022-09-01T11:04:55.300Z,8.98
2022-09-01T11:07:38.263Z,9.07
2022-09-01T11:10:43.362Z,8.40
2022-09-01T11:13:28.395Z,9.40
2022-09-01T11:15:55.200Z,8.07
2022-09-01T11:18:31.282Z,9.10
2022-09-01T11:21:19.794Z,9.25
2022-09-01T11:23:48.259Z,9.05
2022-09-01T11:26:33.247Z,8.80
2022-09-01T11:29:00.779Z,8.32
2022-09-01T11:31:41.042Z,7.82
2022-09-01T11:34:13.654Z,8.73
2022-09-01T11:36:50.186Z,9.52
2022-09-01T11:39:18.995Z,7.72
2022-09-01T11:41:54.532Z,8.90
2022-09-01T11:44:34.772Z,8.88
2022-09-01T11:47:14.422Z,9.50
2022-09-01T11:49:50.603Z,8.73
2022-09-01T11:52:18.970Z,8.73
2022-09-01T11:54:49.354Z,7.75
2022-09-01T11:57:33.897Z,8.27
2022-09-01T12:00:04.186Z,8.32
2022-09-01T12:02:45.427Z,7.40
2022-09-01T12:05:27.436Z,7.72
2022-09-01T12:07:54.627Z,8.10
2022-09-01T12:10:31.701Z,6.82
2022-09-01T12:13:06.180Z,8.68
2022-09-01T12:15:35.050Z,8.10
2022-09-01T12:18:22.060Z,8.38
2022-09-01T12:20:50.907Z,7.93
2022-09-01T12:23:47.333Z,9.32
2022-09-01T12:26:16.642Z,8.93
2022-09-01T12:28:53.033Z,7.22
2022-09-01T12:31:23.941Z,7.05
2022-09-01T12:33:52.106Z,6.30
2022-09-01T12:36:34.774Z,5.88
2022-09-01T12:39:22.686Z,6.80
2022-09-01T12:42:20.522Z,7.07
2022-09-01T12:44:50.484Z,6.95
2022-09-01T12:47:48.167Z,7.47
2022-09-01T12:50:16.599Z,7.28
2022-09-01T12:52:52.450Z,7.07
2022-09-01T12:58:21.490Z,7.93
2022-09-01T13:01:00.291Z,7.32
2022-09-01T13:03:27.887Z,7.05
2022-09-01T13:05:56.297Z,6.22
2022-09-01T13:08:27.076Z,7.03
2022-09-01T13:11:04.046Z,6.20
2022-09-01T13:13:30.823Z,6.40
2022-09-01T13:16:01.679Z,7.03
2022-09-01T13:18:29.172Z,6.35
2022-09-01T13:20:57.316Z,6.70
2022-09-01T13:23:24.057Z,5.90
2022-09-01T13:25:51.091Z,6.78
2022-09-01T13:28:18.493Z,6.65
2022-09-01T13:30:48.184Z,6.38
2022-09-01T13:33:19.531Z,6.28
2022-09-01T13:35:54.043Z,5.88
2022-09-01T13:38:21.167Z,6.10
2022-09-01T13:40:49.755Z,6.00
2022-09-01T13:43:20.073Z,6.70
2022-09-01T13:45:47.010Z,6.82
2022-09-01T13:48:15.887Z,7.07
2022-09-01T13:51:14.920Z,7.38
2022-09-01T13:58:37.557Z,6.30
2022-09-01T14:01:09.470Z,5.72
2022-09-01T14:03:36.426Z,6.85
2022-09-01T14:06:03.508Z,7.00
2022-09-01T14:08:30.887Z,6.65
2022-09-01T14:10:57.567Z,6.80
2022-09-01T14:13:24.857Z,7.15
2022-09-01T14:15:53.482Z,7.55
2022-09-01T14:18:21.787Z,7.20
2022-09-01T14:20:51.134Z,6.10
2022-09-01T14:23:19.338Z,7.28
2022-09-01T14:25:48.737Z,6.88
2022-09-01T14:32:47.547Z,7.20
2022-09-01T14:35:15.818Z,6.45
2022-09-01T14:37:42.571Z,7.28
2022-09-01T14:40:10.968Z,7.50
2022-09-01T14:42:43.970Z,7.53
2022-09-01T14:45:15.597Z,7.68
2022-09-01T14:47:42.314Z,7.20
2022-09-01T14:50:12.177Z,7.50
2022-09-01T14:52:39.132Z,6.97
2022-09-01T14:55:06.101Z,6.78
2022-09-01T14:57:36.898Z,6.72
2022-09-01T15:00:10.161Z,6.90
2022-09-01T15:02:37.556Z,7.33
2022-09-01T15:05:05.089Z,7.50
2022-09-01T15:07:31.770Z,7.13
2022-09-01T15:09:58.951Z,6.38
2022-09-01T15:16:59.155Z,6.78
2022-09-01T15:19:25.893Z,6.65
2022-09-01T15:26:23.400Z,6.20
2022-09-01T15:28:50.103Z,6.00
2022-09-01T15:31:18.509Z,7.00
2022-09-01T15:34:24.890Z,6.55
2022-09-01T15:36:51.575Z,6.05
2022-09-01T15:39:18.245Z,6.47
2022-09-01T15:41:45.322Z,6.70
2022-09-01T15:44:12.223Z,7.25
2022-09-01T15:46:40.475Z,6.32
2022-09-01T15:49:57.830Z,5.97
2022-09-01T15:52:27.270Z,5.85
2022-09-01T15:54:53.949Z,6.28
2022-09-01T15:57:20.645Z,6.38
2022-09-01T15:59:47.290Z,6.45
2022-09-01T16:02:17.709Z,6.40
2022-09-01T16:04:44.562Z,6.88
2022-09-01T16:07:11.225Z,6.40
2022-09-01T16:09:37.966Z,7.18
2022-09-01T16:12:05.991Z,6.03
2022-09-01T16:14:32.666Z,7.15
2022-09-01T16:17:04.169Z,7.63
2022-09-01T16:19:36.902Z,7.47
2022-09-01T16:24:51.440Z,6.15
2022-09-01T16:27:24.542Z,6.70
2022-09-01T16:30:08.453Z,6.18
2022-09-01T16:32:45.229Z,6.65
2022-09-01T16:35:13.651Z,6.95
2022-09-01T16:37:48.680Z,5.97
2022-09-01T16:40:30.071Z,6.40
2022-09-01T16:43:57.626Z,6.68
2022-09-01T16:46:30.686Z,6.07
2022-09-01T16:49:06.971Z,6.38
2022-09-01T16:52:05.647Z,5.88
2022-09-01T16:55:09.497Z,7.40
2022-09-01T16:58:06.204Z,6.15
2022-09-01T17:01:26.381Z,6.05
2022-09-01T17:04:17.696Z,6.85
2022-09-01T17:06:54.871Z,6.05
2022-09-01T17:09:35.590Z,6.65
2022-09-01T17:12:40.897Z,6.00
2022-09-01T17:15:14.651Z,5.50
2022-09-01T17:18:23.298Z,5.63
2022-09-01T17:20:58.324Z,5.70
2022-09-01T17:23:30.309Z,5.25
2022-09-01T17:26:01.819Z,5.88
2022-09-01T17:29:23.162Z,5.60
2022-09-01T17:32:09.821Z,5.63
2022-09-01T17:34:57.577Z,5.90
2022-09-01T17:37:51.639Z,6.18
2022-09-01T17:40:23.165Z,6.28
2022-09-01T17:43:31.116Z,6.13
2022-09-01T17:46:31.324Z,5.75
2022-09-01T17:49:34.377Z,6.38
2022-09-01T17:52:19.089Z,6.38
2022-09-01T17:54:54.746Z,5.90
2022-09-01T17:57:46.489Z,5.90
2022-09-01T18:00:34.606Z,6.03
2022-09-01T18:03:28.437Z,5.90
2022-09-01T18:06:05.013Z,6.20
2022-09-01T18:08:31.629Z,7.28
2022-09-01T18:11:02.370Z,5.95
2022-09-01T18:13:55.763Z,5.70
2022-09-01T18:16:31.176Z,6.60
2022-09-01T18:19:10.226Z,5.97
2022-09-01T18:21:49.294Z,6.30
2022-09-01T18:24:27.058Z,6.10
2022-09-01T18:26:53.774Z,6.38
2022-09-01T18:29:21.450Z,6.13
2022-09-01T18:32:12.302Z,6.28
2022-09-01T18:34:58.829Z,6.40
2022-09-01T18:37:45.317Z,6.20
2022-09-01T18:40:46.125Z,6.20
2022-09-01T18:43:42.013Z,5.93
2022-09-01T18:46:26.962Z,6.43
2022-09-01T18:49:05.862Z,6.75
2022-09-01T18:52:04.341Z,6.80
2022-09-01T18:54:50.351Z,6.35
2022-09-01T18:57:20.974Z,6.60
2022-09-01T19:00:19.142Z,7.85
2022-09-01T19:07:12.218Z,6.90
2022-09-01T19:10:03.381Z,6.78
2022-09-01T19:12:44.300Z,6.97
2022-09-01T19:15:30.166Z,6.93
2022-09-01T19:18:04.204Z,7.40
2022-09-01T19:25:23.646Z,6.85
2022-09-01T19:27:58.868Z,6.40
2022-09-01T19:35:07.375Z,6.88
2022-09-01T19:37:34.084Z,7.55
2022-09-01T19:40:00.998Z,7.40
2022-09-01T19:42:38.629Z,6.80
2022-09-01T19:54:12.761Z,7.75
2022-09-01T19:56:49.567Z,7.00
2022-09-01T20:00:09.246Z,6.97
2022-09-01T20:02:50.018Z,6.95
2022-09-01T20:05:27.432Z,6.93
2022-09-01T20:12:50.139Z,7.63
2022-09-01T20:15:25.658Z,7.63
2022-09-01T20:23:18.360Z,7.88
2022-09-01T20:25:53.776Z,8.27
2022-09-01T20:28:59.411Z,7.97
2022-09-01T20:35:39.735Z,7.47
2022-09-01T20:38:46.031Z,7.65
2022-09-01T20:45:20.614Z,6.97
2022-09-01T20:48:02.037Z,7.30
2022-09-01T20:51:02.819Z,7.50
2022-09-01T20:53:41.685Z,7.60
2022-09-01T20:56:08.396Z,8.43
2022-09-01T20:58:44.967Z,8.07
2022-09-01T21:01:19.505Z,7.82
2022-09-01T21:04:12.250Z,7.90
2022-09-01T21:06:48.492Z,7.60
2022-09-01T21:13:54.926Z,7.53
2022-09-01T21:16:44.364Z,7.28
2022-09-01T21:19:19.608Z,8.02
2022-09-01T21:26:13.978Z,7.78
2022-09-01T21:28:43.911Z,8.18
2022-09-01T21:31:13.014Z,7.60
2022-09-01T21:33:39.855Z,8.05
2022-09-01T21:36:06.927Z,7.82
2022-09-01T21:38:33.669Z,7.75
2022-09-01T21:41:01.454Z,7.80
2022-09-01T21:43:34.634Z,7.85
2022-09-01T21:46:01.776Z,8.05
2022-09-01T21:48:30.016Z,6.88
2022-09-01T21:50:56.691Z,7.70
2022-09-01T21:53:23.543Z,7.40
2022-09-01T21:55:50.203Z,7.53
2022-09-01T21:58:17.013Z,7.63
2022-09-01T22:00:44.488Z,8.20
2022-09-01T22:03:12.523Z,7.80
2022-09-01T22:05:44.746Z,8.07
2022-09-01T22:08:13.395Z,7.95
2022-09-01T22:10:44.258Z,7.90
2022-09-01T22:13:11.693Z,8.07
2022-09-01T22:15:44.493Z,7.97
2022-09-01T22:20:39.293Z,8.43
2022-09-01T22:23:06.918Z,7.40
2022-09-01T22:25:34.818Z,7.53
2022-09-01T22:28:03.762Z,7.72
2022-09-01T22:30:31.387Z,8.07
2022-09-01T22:32:59.904Z,7.70
2022-09-01T22:35:26.766Z,7.95
2022-09-01T22:37:53.582Z,8.57
2022-09-01T22:40:20.499Z,7.03
2022-09-01T22:42:47.351Z,7.65
2022-09-01T22:45:15.011Z,7.85
2022-09-01T22:47:42.087Z,7.45
2022-09-01T22:50:09.863Z,7.60
2022-09-01T22:52:37.041Z,8.27
2022-09-01T22:55:07.006Z,7.72
2022-09-01T22:57:34.479Z,7.70
2022-09-01T23:00:01.334Z,7.68
2022-09-01T23:02:28.395Z,7.75
2022-09-01T23:04:55.464Z,8.05
2022-09-01T23:07:22.172Z,8.05
2022-09-01T23:09:48.959Z,8.07
2022-09-01T23:12:15.755Z,8.27
2022-09-01T23:14:42.631Z,7.50
2022-09-01T23:17:09.502Z,8.82
2022-09-01T23:19:36.290Z,8.50
2022-09-01T23:22:03.137Z,8.00
2022-09-01T23:24:30.057Z,7.28
2022-09-01T23:26:56.913Z,8.15
2022-09-01T23:29:25.348Z,8.05
2022-09-01T23:31:52.612Z,8.15
2022-09-01T23:34:19.511Z,8.27
2022-09-01T23:36:46.285Z,7.65
2022-09-01T23:39:13.046Z,7.45
2022-09-01T23:41:39.837Z,7.50
2022-09-01T23:44:09.729Z,8.20
2022-09-01T23:46:41.007Z,7.90
2022-09-01T23:49:08.150Z,7.03
2022-09-01T23:51:35.767Z,7.35
2022-09-01T23:54:03.001Z,7.30
2022-09-01T23:56:30.663Z,7.70
2022-09-01T23:58:58.550Z,7.07
